RELEVES METEO NEUVILLE
Donnes mto: Actuelle dimanche, 20/06/2021 12:05
Date Horaire Temp. E. Hum. E. P.atmo. Pluie Vent Direction Direction P. de rose Temp au vent Rafales
20/06/2021 12:05 20,6 C 77 % 1008,3 hPa 0,0 mm 1,2 km/h (1 Bft) S 184 16,4 C 20,6 C 9,7 km/h (2 Bft)
20/06/2021 12:00 20,0 C 77 % 1008,4 hPa 0,0 mm 1,1 km/h (1 Bft) S 186 15,8 C 20,0 C 8,0 km/h (2 Bft)
20/06/2021 11:55 19,9 C 78 % 1008,6 hPa 0,0 mm 0,6 km/h (0 Bft) S-SO 200 15,9 C 19,9 C 6,4 km/h (2 Bft)
20/06/2021 11:50 20,1 C 78 % 1008,7 hPa 0,0 mm 1,4 km/h (1 Bft) S-SO 198 16,1 C 20,1 C 9,7 km/h (2 Bft)
20/06/2021 11:45 19,9 C 79 % 1008,7 hPa 0,0 mm 1,4 km/h (1 Bft) O-SO 248 16,1 C 19,9 C 14,5 km/h (3 Bft)
20/06/2021 11:40 19,6 C 79 % 1008,6 hPa 0,0 mm 2,6 km/h (1 Bft) S-SO 205 15,9 C 19,6 C 14,5 km/h (3 Bft)
20/06/2021 11:35 19,6 C 79 % 1008,8 hPa 0,0 mm 2,3 km/h (1 Bft) S-SO 198 15,9 C 19,6 C 11,3 km/h (2 Bft)
20/06/2021 11:30 19,6 C 81 % 1008,8 hPa 0,0 mm 1,6 km/h (1 Bft) S 184 16,2 C 19,6 C 11,3 km/h (2 Bft)
20/06/2021 11:25 19,4 C 80 % 1008,8 hPa 0,0 mm 1,0 km/h (0 Bft) S-SO 192 15,9 C 19,4 C 9,7 km/h (2 Bft)
20/06/2021 11:20 18,9 C 81 % 1008,9 hPa 0,0 mm 1,3 km/h (1 Bft) S-SO 192 15,6 C 18,9 C 9,7 km/h (2 Bft)
20/06/2021 11:15 18,9 C 82 % 1008,9 hPa 0,0 mm 1,2 km/h (1 Bft) S 178 15,8 C 18,9 C 11,3 km/h (2 Bft)
20/06/2021 11:10 18,9 C 82 % 1008,9 hPa 0,0 mm 2,7 km/h (1 Bft) S 182 15,8 C 18,9 C 12,9 km/h (3 Bft)
20/06/2021 11:05 18,8 C 83 % 1008,8 hPa 0,0 mm 0,4 km/h (0 Bft) O 269 15,8 C 18,8 C 4,8 km/h (1 Bft)
20/06/2021 11:00 18,7 C 83 % 1008,8 hPa 0,0 mm 1,0 km/h (0 Bft) S-SO 205 15,8 C 18,7 C 11,3 km/h (2 Bft)
20/06/2021 10:55 18,7 C 83 % 1008,9 hPa 0,0 mm 0,7 km/h (0 Bft) SO 228 15,8 C 18,7 C 11,3 km/h (2 Bft)
20/06/2021 10:50 18,7 C 83 % 1008,8 hPa 0,0 mm 0,7 km/h (0 Bft) S-SO 196 15,8 C 18,7 C 9,7 km/h (2 Bft)
20/06/2021 10:45 18,6 C 83 % 1008,7 hPa 0,0 mm 0,3 km/h (0 Bft) S-SO 194 15,7 C 18,6 C 4,8 km/h (1 Bft)
20/06/2021 10:40 18,3 C 84 % 1008,7 hPa 0,0 mm 1,8 km/h (1 Bft) S-SO 194 15,5 C 18,3 C 12,9 km/h (3 Bft)
20/06/2021 10:35 18,3 C 83 % 1008,7 hPa 0,0 mm 1,5 km/h (1 Bft) S 182 15,4 C 18,3 C 16,1 km/h (3 Bft)
20/06/2021 10:30 18,6 C 83 % 1008,7 hPa 0,0 mm 1,1 km/h (1 Bft) S-SO 206 15,7 C 18,6 C 11,3 km/h (2 Bft)
20/06/2021 10:25 18,6 C 84 % 1008,6 hPa 0,0 mm 0,4 km/h (0 Bft) S-SO 192 15,8 C 18,6 C 6,4 km/h (2 Bft)
_ Min-Heure 06:55 12:00 01:05 - 00:20 - - 08:10 07:05 00:20
Minimum _ 16,2 C 77 % 1006,4 hPa - 0,0 km/h (0 Bft) - - 14,8 C 16,2 C 0,0 km/h (0 Bft)
_ Max-Heure 12:05 01:50 10:55 00:00 01:05 - - 04:25 12:05 10:35
Maximum _ 20,6 C 98 % 1008,9 hPa 0,0 mm 3,8 km/h
NE (1 Bft)
- - 16,8 C 20,6 C 16,1 km/h
S (3 Bft)
Moyenne _ 17,2 C 92 % 1007,6 hPa #0,0 mm 0,6 km/h (0 Bft) S-SO - 15,9 C 17,2 C 5,9 km/h (2 Bft)
NEUVILLE ST REMY